Time;durP1;ratioP1;P1;durP2;ratioP2;P2;SDS_P1;SDS_P2;PMS_P1;PMS_P2;Temp;Humidity;BMP_temperature;BMP_pressure;BME280_temperature;BME280_humidity;BME280_pressure;Samples;Min_cycle;Max_cycle;Signal;HPM_P1;HPM_P2
2023/07/10 00:01:40;;;;;;;;;;;;;;;22.97;48.69;93382.59;2048366;70;20055;-75
2023/07/10 00:04:13;;;;;;;;;;;;;;;23.03;48.97;93382.72;2047884;70;20043;-74
2023/07/10 00:06:39;;;;;;;;;;;;;;;23.01;48.04;93382.69;2048253;70;20082;-77
2023/07/10 00:09:04;;;;;;;;;;;;;;;22.89;48.19;93384.50;2048392;70;20488;-77
2023/07/10 00:11:30;;;;;;;;;;;;;;;22.77;49.28;93379.91;2048292;70;20077;-73
2023/07/10 00:13:56;;;;;;;;;;;;;;;22.81;50.29;93385.00;2048216;70;20047;-74
2023/07/10 00:16:22;;;;;;;;;;;;;;;22.87;49.91;93378.72;2048344;70;20082;-76
2023/07/10 00:18:48;;;;;;;;;;;;;;;22.97;50.64;93379.72;2048254;70;20507;-76
2023/07/10 00:21:15;;;;;;;;;;;;;;;23.01;49.93;93387.72;2048227;70;20534;-75
2023/07/10 00:23:40;;;;;;;;;;;;;;;22.80;51.01;93381.41;2048413;70;20074;-72
2023/07/10 00:26:15;;;;;;;;;;;;;;;22.81;49.84;93388.59;2048153;70;20058;-73
2023/07/10 00:28:40;;;;;;;;;;;;;;;22.55;50.30;93379.31;2047818;70;20162;-73
2023/07/10 00:31:06;;;;;;;;;;;;;;;22.65;49.33;93384.59;2035305;70;20057;-73
2023/07/10 00:33:32;;;;;;;;;;;;;;;22.53;50.20;93379.97;2042421;70;20094;-76
2023/07/10 00:35:58;;;;;;;;;;;;;;;22.58;50.93;93378.66;2040534;70;20056;-73
2023/07/10 00:38:27;;;;;;;;;;;;;;;22.61;50.33;93384.47;2032089;70;20085;-74
2023/07/10 00:41:00;;;;;;;;;;;;;;;22.76;49.39;93377.69;2031691;70;20492;-74
2023/07/10 00:43:29;;;;;;;;;;;;;;;22.79;48.81;93379.94;2032371;70;20450;-73
2023/07/10 00:45:59;;;;;;;;;;;;;;;22.67;50.55;93373.16;2031956;70;20397;-74
2023/07/10 00:48:32;;;;;;;;;;;;;;;22.69;50.50;93376.81;2032161;70;20060;-74
2023/07/10 00:51:01;;;;;;;;;;;;;;;22.56;51.07;93372.16;2031872;70;20425;-74
2023/07/10 00:53:33;;;;;;;;;;;;;;;22.65;50.72;93370.97;2032587;70;20059;-73
2023/07/10 00:56:02;;;;;;;;;;;;;;;22.63;49.81;93373.78;2032615;70;20056;-75
2023/07/10 00:58:37;;;;;;;;;;;;;;;22.69;49.13;93368.22;2032033;70;20162;-74
2023/07/10 01:01:07;;;;;;;;;;;;;;;22.62;49.05;93380.19;2032627;70;20060;-75
2023/07/10 01:03:41;;;;;;;;;;;;;;;22.61;48.43;93378.75;2032894;70;20111;-74
2023/07/10 01:06:08;;;;;;;;;;;;;;;22.50;49.03;93375.59;2033242;70;20083;-73
2023/07/10 01:08:42;;;;;;;;;;;;;;;22.64;48.77;93386.00;2033684;70;20497;-74
2023/07/10 01:11:09;;;;;;;;;;;;;;;22.64;48.75;93381.00;2032734;70;20171;-74
2023/07/10 01:13:37;;;;;;;;;;;;;;;22.63;49.62;93385.25;2034030;70;20088;-74
2023/07/10 01:16:04;;;;;;;;;;;;;;;22.46;49.58;93391.97;2033557;70;20069;-73
2023/07/10 01:18:33;;;;;;;;;;;;;;;22.38;49.92;93386.00;2033791;70;20045;-74
2023/07/10 01:21:08;;;;;;;;;;;;;;;22.32;51.00;93390.16;2035637;70;20090;-73
2023/07/10 01:23:34;;;;;;;;;;;;;;;22.16;50.93;93371.78;2049709;70;20050;-74
2023/07/10 01:26:03;;;;;;;;;;;;;;;22.19;51.69;93381.91;2048937;70;20122;-73
2023/07/10 01:28:29;;;;;;;;;;;;;;;22.22;51.56;93378.44;2048662;70;20471;-72
2023/07/10 01:30:57;;;;;;;;;;;;;;;22.15;51.32;93378.91;2048660;70;20063;-73
2023/07/10 01:33:44;;;;;;;;;;;;;;;22.32;49.33;93372.97;2046024;70;20051;-73
2023/07/10 01:36:17;;;;;;;;;;;;;;;22.43;48.96;93364.63;2049761;70;20066;-73
2023/07/10 01:38:49;;;;;;;;;;;;;;;22.31;49.29;93362.16;2049647;70;20055;-74
2023/07/10 01:41:24;;;;;;;;;;;;;;;22.50;48.40;93363.41;2049378;70;20081;-74
2023/07/10 01:43:54;;;;;;;;;;;;;;;22.46;48.83;93364.00;2048841;70;20519;-73
2023/07/10 01:46:24;;;;;;;;;;;;;;;22.31;49.84;93368.63;2049273;70;20055;-73
2023/07/10 01:48:53;;;;;;;;;;;;;;;22.23;51.65;93376.28;2048760;70;20044;-73
2023/07/10 01:51:20;;;;;;;;;;;;;;;22.26;49.66;93364.16;2049361;70;20055;-73
2023/07/10 01:53:48;;;;;;;;;;;;;;;22.28;50.48;93366.38;2049229;70;20498;-75
2023/07/10 01:56:16;;;;;;;;;;;;;;;22.01;49.95;93367.75;2048441;70;20054;-73
2023/07/10 01:58:45;;;;;;;;;;;;;;;22.17;50.70;93371.09;2048568;70;20047;-73
2023/07/10 02:01:12;;;;;;;;;;;;;;;22.05;51.12;93382.19;2049234;70;20051;-74
2023/07/10 02:03:38;;;;;;;;;;;;;;;21.72;50.67;93384.13;2048927;70;20071;-73
2023/07/10 02:06:04;;;;;;;;;;;;;;;21.92;49.96;93383.97;2046400;70;20125;-73
2023/07/10 02:08:31;;;;;;;;;;;;;;;22.02;50.21;93392.13;2049476;70;20051;-73
2023/07/10 02:10:56;;;;;;;;;;;;;;;22.10;49.65;93397.38;2048463;70;20129;-72
2023/07/10 02:13:25;;;;;;;;;;;;;;;21.90;49.99;93401.13;2048168;70;20051;-74
2023/07/10 02:15:51;;;;;;;;;;;;;;;21.97;51.67;93402.03;2048640;70;20510;-72
2023/07/10 02:18:16;;;;;;;;;;;;;;;21.86;53.15;93403.13;2048152;70;20109;-74
2023/07/10 02:20:42;;;;;;;;;;;;;;;21.77;51.70;93402.88;2048964;70;20065;-72
2023/07/10 02:23:08;;;;;;;;;;;;;;;21.93;52.08;93407.63;2048948;70;20054;-74
2023/07/10 02:25:33;;;;;;;;;;;;;;;21.95;51.67;93408.44;2031779;70;20049;-73
2023/07/10 02:27:59;;;;;;;;;;;;;;;21.96;52.21;93409.16;2029414;70;20060;-74
2023/07/10 02:30:25;;;;;;;;;;;;;;;21.77;51.42;93419.34;2029591;70;20064;-75
2023/07/10 02:32:50;;;;;;;;;;;;;;;21.96;50.58;93409.91;2028999;70;20057;-74
2023/07/10 02:35:16;;;;;;;;;;;;;;;21.96;52.14;93406.31;2029273;70;20116;-74
2023/07/10 02:37:42;;;;;;;;;;;;;;;21.96;52.91;93406.31;2029690;70;20065;-73
2023/07/10 02:40:08;;;;;;;;;;;;;;;21.93;52.53;93411.22;2026452;70;20071;-73
2023/07/10 02:42:34;;;;;;;;;;;;;;;21.83;53.32;93408.06;2028820;70;20623;-72
2023/07/10 02:45:00;;;;;;;;;;;;;;;21.85;52.21;93402.38;2028849;70;20081;-73
2023/07/10 02:47:27;;;;;;;;;;;;;;;21.91;52.27;93401.84;2029504;70;20065;-71
2023/07/10 02:49:52;;;;;;;;;;;;;;;21.82;50.92;93403.75;2029258;70;20087;-73
2023/07/10 02:52:18;;;;;;;;;;;;;;;21.70;52.21;93400.50;2029403;70;20064;-73
2023/07/10 02:54:44;;;;;;;;;;;;;;;21.79;50.45;93393.63;2028917;70;20087;-74
2023/07/10 02:57:10;;;;;;;;;;;;;;;21.85;49.44;93390.19;2028843;70;20080;-73
2023/07/10 02:59:39;;;;;;;;;;;;;;;21.98;49.63;93389.16;2028854;70;20429;-73
2023/07/10 03:02:05;;;;;;;;;;;;;;;21.87;50.39;93391.00;2028899;70;20632;-72
2023/07/10 03:04:30;;;;;;;;;;;;;;;21.68;51.13;93397.59;2029467;70;20049;-73
2023/07/10 03:06:56;;;;;;;;;;;;;;;21.74;49.16;93384.16;2028794;70;20064;-71
2023/07/10 03:09:22;;;;;;;;;;;;;;;21.72;49.87;93389.13;2029516;70;20081;-73
2023/07/10 03:11:51;;;;;;;;;;;;;;;21.77;48.58;93385.69;2029468;70;20085;-74
2023/07/10 03:14:16;;;;;;;;;;;;;;;21.87;48.34;93390.25;2028784;70;20465;-73
2023/07/10 03:16:42;;;;;;;;;;;;;;;21.83;50.17;93394.47;2029327;70;20089;-72
2023/07/10 03:19:07;;;;;;;;;;;;;;;21.74;51.45;93394.91;2029400;70;20410;-72
2023/07/10 03:21:33;;;;;;;;;;;;;;;21.64;50.79;93386.72;2028916;70;20136;-74
2023/07/10 03:24:00;;;;;;;;;;;;;;;21.69;51.21;93381.84;2028662;70;20402;-72
2023/07/10 03:26:25;;;;;;;;;;;;;;;21.64;51.51;93386.72;2029344;70;20512;-73
2023/07/10 03:29:01;;;;;;;;;;;;;;;21.68;51.40;93392.59;2029399;70;20049;-74
2023/07/10 03:31:26;;;;;;;;;;;;;;;21.56;51.23;93389.34;2029149;70;20168;-73
2023/07/10 03:33:52;;;;;;;;;;;;;;;21.55;51.78;93385.75;2029221;70;20167;-74
2023/07/10 03:36:19;;;;;;;;;;;;;;;21.65;52.02;93393.19;2029018;70;20084;-73
2023/07/10 03:38:44;;;;;;;;;;;;;;;21.65;50.98;93398.91;2029550;70;20432;-76
2023/07/10 03:41:09;;;;;;;;;;;;;;;21.57;52.07;93399.38;2029384;70;20144;-75
2023/07/10 03:43:35;;;;;;;;;;;;;;;21.59;50.95;93395.88;2028997;70;20063;-75
2023/07/10 03:46:00;;;;;;;;;;;;;;;21.54;51.79;93398.59;2029551;70;20055;-74
2023/07/10 03:48:27;;;;;;;;;;;;;;;21.42;52.10;93409.69;2029443;70;20092;-74
2023/07/10 03:50:52;;;;;;;;;;;;;;;21.45;51.72;93416.22;2029460;70;20111;-74
2023/07/10 03:53:18;;;;;;;;;;;;;;;21.48;51.97;93415.59;2029333;70;20084;-74
2023/07/10 03:55:53;;;;;;;;;;;;;;;21.51;52.46;93427.84;2029417;70;20061;-73
2023/07/10 03:58:23;;;;;;;;;;;;;;;21.57;52.63;93434.50;2029255;70;20056;-73
2023/07/10 04:00:49;;;;;;;;;;;;;;;21.54;52.84;93427.25;2029449;70;20052;-74
2023/07/10 04:03:16;;;;;;;;;;;;;;;21.54;53.41;93429.38;2029419;70;20060;-76
2023/07/10 04:05:42;;;;;;;;;;;;;;;21.48;53.88;93435.63;2028952;70;20482;-74
2023/07/10 04:08:08;;;;;;;;;;;;;;;21.50;51.27;93432.84;2028972;70;20057;-74
2023/07/10 04:10:36;;;;;;;;;;;;;;;21.38;50.86;93428.88;2029802;70;20053;-75
2023/07/10 04:13:01;;;;;;;;;;;;;;;21.58;50.86;93432.38;2029262;70;20085;-74
2023/07/10 04:15:26;;;;;;;;;;;;;;;21.62;50.84;93428.91;2029467;70;20099;-74
2023/07/10 04:17:52;;;;;;;;;;;;;;;21.64;51.81;93423.25;2029350;70;20120;-76
2023/07/10 04:20:17;;;;;;;;;;;;;;;21.71;52.87;93413.41;2029540;70;20088;-76
2023/07/10 04:22:44;;;;;;;;;;;;;;;21.58;51.75;93418.06;2029367;70;20052;-75
2023/07/10 04:25:10;;;;;;;;;;;;;;;21.53;52.35;93402.13;2029429;70;20409;-75
2023/07/10 04:27:35;;;;;;;;;;;;;;;21.52;52.57;93410.00;2029505;70;20544;-73
2023/07/10 04:30:01;;;;;;;;;;;;;;;21.57;52.23;93414.44;2029536;70;20092;-74
2023/07/10 04:32:26;;;;;;;;;;;;;;;21.63;52.16;93410.31;2029421;70;20056;-73
2023/07/10 04:34:52;;;;;;;;;;;;;;;21.50;51.19;93412.81;2029399;70;20073;-76
2023/07/10 04:37:17;;;;;;;;;;;;;;;21.35;50.05;93410.91;2029362;70;20490;-75
2023/07/10 04:39:42;;;;;;;;;;;;;;;21.63;49.60;93421.78;2029439;70;20069;-77
2023/07/10 04:42:08;;;;;;;;;;;;;;;21.66;50.13;93429.03;2029366;70;20064;-76
2023/07/10 04:44:33;;;;;;;;;;;;;;;21.61;50.57;93433.16;2029461;70;20099;-76
2023/07/10 04:46:59;;;;;;;;;;;;;;;21.70;49.12;93435.59;2029369;70;20053;-75
2023/07/10 04:49:25;;;;;;;;;;;;;;;21.49;50.06;93428.53;2029411;70;20209;-76
2023/07/10 04:51:51;;;;;;;;;;;;;;;21.66;50.29;93438.34;2029218;70;20096;-76
2023/07/10 04:54:17;;;;;;;;;;;;;;;21.58;51.61;93435.25;2029420;70;20049;-76
2023/07/10 04:56:42;;;;;;;;;;;;;;;21.66;50.60;93435.47;2029126;70;20075;-77
2023/07/10 04:59:09;;;;;;;;;;;;;;;21.68;50.65;93438.44;2029417;70;20060;-76
2023/07/10 05:01:34;;;;;;;;;;;;;;;21.63;50.14;93439.69;2028801;70;20050;-76
2023/07/10 05:04:00;;;;;;;;;;;;;;;21.57;50.19;93437.34;2029408;70;20121;-76
2023/07/10 05:06:26;;;;;;;;;;;;;;;21.67;50.97;93448.44;2029256;70;20425;-75
2023/07/10 05:08:53;;;;;;;;;;;;;;;21.69;52.48;93454.22;2029291;70;20055;-77
2023/07/10 05:11:22;;;;;;;;;;;;;;;21.68;52.86;93444.16;2029219;70;20069;-76
2023/07/10 05:13:48;;;;;;;;;;;;;;;21.74;52.30;93441.47;2028822;70;20049;-76
2023/07/10 05:16:14;;;;;;;;;;;;;;;21.72;53.04;93447.16;2029366;70;20053;-75
2023/07/10 05:18:39;;;;;;;;;;;;;;;21.65;54.13;93451.22;2029367;70;20049;-74
2023/07/10 05:21:05;;;;;;;;;;;;;;;21.44;52.28;93447.00;2028653;70;20056;-75
2023/07/10 05:23:30;;;;;;;;;;;;;;;21.53;52.46;93450.81;2029586;70;20078;-73
2023/07/10 05:26:07;;;;;;;;;;;;;;;21.63;53.77;93450.44;2029473;70;20100;-74
2023/07/10 05:28:34;;;;;;;;;;;;;;;21.59;54.28;93458.91;2029601;70;20068;-74
2023/07/10 05:31:00;;;;;;;;;;;;;;;21.70;52.43;93455.66;2029314;70;20061;-74
2023/07/10 05:33:26;;;;;;;;;;;;;;;21.55;54.90;93436.56;2029377;70;20069;-74
2023/07/10 05:35:56;;;;;;;;;;;;;;;21.55;54.88;93442.31;2029386;70;20064;-74
2023/07/10 05:38:23;;;;;;;;;;;;;;;21.44;55.25;93444.13;2029340;70;20637;-74
2023/07/10 05:40:48;;;;;;;;;;;;;;;21.54;55.63;93443.72;2029365;70;20076;-74
2023/07/10 05:43:14;;;;;;;;;;;;;;;21.54;55.75;93444.44;2029219;70;20414;-74
2023/07/10 05:45:39;;;;;;;;;;;;;;;21.59;56.21;93447.44;2029494;70;20052;-75
2023/07/10 05:48:05;;;;;;;;;;;;;;;21.65;56.08;93459.09;2029505;70;20052;-75
2023/07/10 05:50:31;;;;;;;;;;;;;;;21.62;56.71;93446.09;2029907;70;20053;-75
2023/07/10 05:52:56;;;;;;;;;;;;;;;21.72;55.80;93455.03;2029909;70;20049;-75
2023/07/10 05:55:22;;;;;;;;;;;;;;;21.70;56.20;93454.94;2029862;70;20159;-75
2023/07/10 05:57:47;;;;;;;;;;;;;;;21.71;57.14;93454.25;2029749;70;20116;-75
2023/07/10 06:00:15;;;;;;;;;;;;;;;21.62;56.23;93461.13;2030004;70;20183;-74
2023/07/10 06:02:40;;;;;;;;;;;;;;;21.77;54.93;93460.19;2029846;70;20148;-74
2023/07/10 06:05:07;;;;;;;;;;;;;;;21.77;54.93;93456.59;2029970;70;20045;-73
2023/07/10 06:07:32;;;;;;;;;;;;;;;21.86;56.15;93451.88;2029843;70;20080;-75
2023/07/10 06:09:57;;;;;;;;;;;;;;;21.91;57.38;93459.19;2029863;70;20510;-74
2023/07/10 06:12:23;;;;;;;;;;;;;;;21.98;55.12;93458.69;2029810;70;20060;-73
2023/07/10 06:14:49;;;;;;;;;;;;;;;22.11;55.26;93451.19;2029916;70;20056;-73
2023/07/10 06:17:14;;;;;;;;;;;;;;;22.24;55.81;93455.16;2029783;70;20070;-74
2023/07/10 06:19:40;;;;;;;;;;;;;;;22.17;54.95;93459.97;2029911;70;20057;-75
2023/07/10 06:22:10;;;;;;;;;;;;;;;22.40;55.08;93469.97;2029865;70;20604;-75
2023/07/10 06:24:36;;;;;;;;;;;;;;;22.51;55.05;93465.28;2029428;70;20053;-75
2023/07/10 06:27:02;;;;;;;;;;;;;;;22.61;54.23;93461.94;2029663;70;20049;-76
2023/07/10 06:29:28;;;;;;;;;;;;;;;22.70;55.09;93458.63;2029830;70;20148;-77
2023/07/10 06:31:56;;;;;;;;;;;;;;;22.83;54.25;93459.69;2029810;70;20053;-74
2023/07/10 06:34:22;;;;;;;;;;;;;;;22.95;55.11;93459.31;2029780;70;20053;-75
2023/07/10 06:36:47;;;;;;;;;;;;;;;23.09;54.63;93448.19;2029892;70;20045;-74
2023/07/10 06:39:12;;;;;;;;;;;;;;;23.15;54.50;93451.25;2029812;70;20077;-74
2023/07/10 06:41:38;;;;;;;;;;;;;;;23.27;53.87;93451.53;2029787;70;20478;-75
2023/07/10 06:44:05;;;;;;;;;;;;;;;23.14;55.55;93452.66;2026304;70;20067;-76
2023/07/10 06:46:31;;;;;;;;;;;;;;;23.25;55.11;93445.03;2029841;70;20049;-74
2023/07/10 06:48:56;;;;;;;;;;;;;;;23.30;54.68;93453.06;2029843;70;20060;-73
2023/07/10 06:51:21;;;;;;;;;;;;;;;23.41;54.25;93445.41;2029203;70;20147;-76
2023/07/10 06:53:47;;;;;;;;;;;;;;;23.46;53.63;93441.25;2029780;70;20512;-76
2023/07/10 06:56:14;;;;;;;;;;;;;;;23.44;53.83;93444.06;2029126;70;20127;-75
2023/07/10 06:58:40;;;;;;;;;;;;;;;23.44;54.62;93438.31;2029667;70;20085;-76
2023/07/10 07:01:05;;;;;;;;;;;;;;;23.55;53.92;93436.44;2029878;70;20141;-76
2023/07/10 07:03:31;;;;;;;;;;;;;;;23.71;54.01;93431.09;2029776;70;20053;-76
2023/07/10 07:05:56;;;;;;;;;;;;;;;23.83;53.71;93433.53;2029849;70;20576;-76
2023/07/10 07:08:22;;;;;;;;;;;;;;;23.90;54.51;93440.13;2029874;70;20566;-75
2023/07/10 07:10:51;;;;;;;;;;;;;;;24.11;53.88;93444.94;2029675;70;20049;-75
2023/07/10 07:13:19;;;;;;;;;;;;;;;24.23;53.45;93456.69;2029553;70;20517;-74
2023/07/10 07:15:48;;;;;;;;;;;;;;;24.28;53.11;93469.00;2029682;70;20061;-75
2023/07/10 07:18:13;;;;;;;;;;;;;;;24.32;53.02;93471.97;2029697;70;20079;-74
2023/07/10 07:20:39;;;;;;;;;;;;;;;24.24;51.54;93469.69;2029370;70;20061;-75
2023/07/10 07:23:04;;;;;;;;;;;;;;;24.38;49.04;93454.91;2029757;70;20053;-74
2023/07/10 07:25:30;;;;;;;;;;;;;;;24.57;50.27;93458.88;2029692;70;20100;-76
2023/07/10 07:27:59;;;;;;;;;;;;;;;24.69;52.05;93452.63;2029723;70;20097;-77
2023/07/10 07:30:25;;;;;;;;;;;;;;;24.74;51.31;93446.28;2029673;70;20156;-76
2023/07/10 07:32:51;;;;;;;;;;;;;;;24.92;48.58;93442.25;2029572;70;20074;-77
2023/07/10 07:35:16;;;;;;;;;;;;;;;25.04;48.57;93428.09;2029649;70;20082;-75
2023/07/10 07:37:42;;;;;;;;;;;;;;;25.14;50.93;93439.84;2029599;70;20060;-76
2023/07/10 07:40:09;;;;;;;;;;;;;;;25.35;50.74;93430.13;2029657;70;20061;-76
2023/07/10 07:42:35;;;;;;;;;;;;;;;25.32;49.62;93419.97;2029645;70;20056;-75
2023/07/10 07:45:00;;;;;;;;;;;;;;;25.54;49.73;93425.41;2029822;70;20049;-76
2023/07/10 07:47:26;;;;;;;;;;;;;;;25.65;48.27;93422.66;2029569;70;20061;-75
2023/07/10 07:49:52;;;;;;;;;;;;;;;25.32;46.98;93431.50;2029720;70;20474;-77
2023/07/10 07:52:18;;;;;;;;;;;;;;;25.43;46.05;93432.44;2029720;70;20064;-77
2023/07/10 07:54:44;;;;;;;;;;;;;;;25.90;46.60;93424.53;2029114;70;20129;-76
2023/07/10 07:57:09;;;;;;;;;;;;;;;26.05;46.96;93437.72;2029581;70;20115;-75
2023/07/10 07:59:35;;;;;;;;;;;;;;;25.96;50.01;93423.91;2029005;70;20053;-77
2023/07/10 08:02:00;;;;;;;;;;;;;;;26.00;49.91;93427.56;2029635;70;20049;-78
2023/07/10 08:04:26;;;;;;;;;;;;;;;25.89;46.11;93425.22;2029606;70;20044;-77
2023/07/10 08:06:52;;;;;;;;;;;;;;;25.79;45.81;93429.41;2029600;70;20144;-77
2023/07/10 08:09:18;;;;;;;;;;;;;;;25.37;45.73;93438.06;2029675;70;20484;-78
2023/07/10 08:11:43;;;;;;;;;;;;;;;25.72;46.37;93436.50;2029318;70;20080;-76
2023/07/10 08:14:09;;;;;;;;;;;;;;;25.95;45.97;93442.63;2029477;70;20061;-78
2023/07/10 08:16:36;;;;;;;;;;;;;;;25.74;46.17;93448.03;2029564;70;20064;-79
2023/07/10 08:19:02;;;;;;;;;;;;;;;26.19;45.49;93442.97;2029577;70;20057;-79
2023/07/10 08:21:27;;;;;;;;;;;;;;;26.31;46.46;93451.81;2029683;70;20057;-77
2023/07/10 08:23:52;;;;;;;;;;;;;;;26.38;46.74;93432.41;2029579;70;20071;-78
2023/07/10 08:26:18;;;;;;;;;;;;;;;26.37;48.42;93439.63;2029611;70;20483;-76
2023/07/10 08:28:46;;;;;;;;;;;;;;;26.41;47.08;93448.34;2029587;70;20045;-75
2023/07/10 08:31:12;;;;;;;;;;;;;;;26.15;48.65;93442.91;2029600;70;20088;-78
2023/07/10 08:33:38;;;;;;;;;;;;;;;26.55;49.55;93436.28;2029482;70;20056;-77
2023/07/10 08:36:06;;;;;;;;;;;;;;;26.19;45.36;93436.47;2029638;70;20490;-78
2023/07/10 08:38:32;;;;;;;;;;;;;;;26.73;43.37;93432.88;2029492;70;20056;-77
2023/07/10 08:41:00;;;;;;;;;;;;;;;26.48;41.50;93440.50;2029514;70;20515;-77
2023/07/10 08:43:37;;;;;;;;;;;;;;;26.82;42.32;93432.25;2029531;70;20508;-77
2023/07/10 08:46:05;;;;;;;;;;;;;;;27.03;41.79;93427.44;2029631;70;20054;-78
2023/07/10 08:48:34;;;;;;;;;;;;;;;27.70;41.66;93421.56;2029594;70;20053;-78
2023/07/10 08:51:19;;;;;;;;;;;;;;;28.41;41.13;93414.84;2029845;70;20441;-78
2023/07/10 08:53:48;;;;;;;;;;;;;;;28.26;40.25;93411.84;2030711;70;20474;-78
2023/07/10 08:56:37;;;;;;;;;;;;;;;28.58;38.51;93399.72;2029548;70;20188;-78
2023/07/10 08:59:16;;;;;;;;;;;;;;;28.41;40.55;93401.13;2030314;70;20069;-77
2023/07/10 09:01:45;;;;;;;;;;;;;;;28.91;39.68;93405.66;2029617;70;20079;-77
2023/07/10 09:04:18;;;;;;;;;;;;;;;29.06;37.72;93406.44;2029564;70;20494;-76
2023/07/10 09:06:56;;;;;;;;;;;;;;;28.87;38.41;93399.84;2028992;70;20061;-78
2023/07/10 09:09:36;;;;;;;;;;;;;;;29.63;37.93;93404.34;2029555;70;20059;-75
2023/07/10 09:12:05;;;;;;;;;;;;;;;30.19;37.18;93396.34;2029393;70;20259;-77
2023/07/10 09:14:35;;;;;;;;;;;;;;;30.22;38.31;93391.25;2029491;70;20065;-76
2023/07/10 09:17:02;;;;;;;;;;;;;;;31.25;38.54;93392.28;2029457;70;20144;-76
2023/07/10 09:19:28;;;;;;;;;;;;;;;31.76;36.68;93383.97;2029354;70;20502;-77
2023/07/10 09:21:53;;;;;;;;;;;;;;;31.26;34.60;93374.13;2029460;70;20072;-76
2023/07/10 09:24:22;;;;;;;;;;;;;;;31.55;34.10;93371.75;2029931;70;20444;-77
2023/07/10 09:26:48;;;;;;;;;;;;;;;32.11;33.86;93364.00;2029895;70;20510;-78
2023/07/10 09:29:14;;;;;;;;;;;;;;;32.21;34.34;93371.19;2029932;70;20159;-76
2023/07/10 09:31:44;;;;;;;;;;;;;;;32.62;35.49;93378.06;2029944;70;20117;-77
2023/07/10 09:34:11;;;;;;;;;;;;;;;31.75;32.07;93373.78;2029765;70;20513;-76
2023/07/10 09:36:36;;;;;;;;;;;;;;;32.78;33.13;93377.13;2029889;70;20520;-77
2023/07/10 09:39:03;;;;;;;;;;;;;;;32.81;31.30;93380.75;2029862;70;20059;-78
2023/07/10 09:41:29;;;;;;;;;;;;;;;33.16;31.59;93374.47;2029261;70;20061;-77
2023/07/10 09:43:56;;;;;;;;;;;;;;;33.58;30.59;93376.06;2029848;70;20049;-79
2023/07/10 09:46:23;;;;;;;;;;;;;;;32.83;31.58;93377.81;2029891;70;20060;-78
2023/07/10 09:48:50;;;;;;;;;;;;;;;33.49;30.60;93371.81;2029984;70;20049;-77
2023/07/10 09:51:17;;;;;;;;;;;;;;;33.62;31.98;93381.84;2029847;70;20049;-76
2023/07/10 09:53:46;;;;;;;;;;;;;;;33.50;32.62;93374.00;2029460;70;20057;-77
2023/07/10 09:56:24;;;;;;;;;;;;;;;34.04;29.87;93368.03;2029860;70;20056;-76
2023/07/10 09:58:52;;;;;;;;;;;;;;;34.58;29.00;93363.41;2030095;70;20056;-77
2023/07/10 10:01:17;;;;;;;;;;;;;;;34.89;28.61;93360.59;2029830;70;20041;-77
2023/07/10 10:03:43;;;;;;;;;;;;;;;35.26;28.52;93341.53;2029902;70;20076;-76
2023/07/10 10:06:18;;;;;;;;;;;;;;;34.87;28.05;93342.38;2029869;70;20160;-76
2023/07/10 10:08:47;;;;;;;;;;;;;;;33.86;28.67;93340.59;2029538;70;20083;-81
2023/07/10 10:11:13;;;;;;;;;;;;;;;34.35;29.39;93336.06;2029414;70;20409;-78
2023/07/10 10:13:41;;;;;;;;;;;;;;;34.10;29.85;93333.59;2029792;70;20049;-77
2023/07/10 10:16:12;;;;;;;;;;;;;;;35.08;28.70;93328.03;2029884;70;20049;-79
2023/07/10 10:18:48;;;;;;;;;;;;;;;35.99;27.13;93331.03;2029293;70;20141;-79
2023/07/10 10:21:15;;;;;;;;;;;;;;;35.21;26.92;93326.28;2029823;70;20072;-78
2023/07/10 10:23:43;;;;;;;;;;;;;;;35.61;27.56;93332.69;2029845;70;20049;-79
2023/07/10 10:26:12;;;;;;;;;;;;;;;36.60;27.26;93323.53;2029845;70;20095;-78
2023/07/10 10:28:44;;;;;;;;;;;;;;;35.33;27.18;93316.50;2029861;70;20080;-77
2023/07/10 10:31:13;;;;;;;;;;;;;;;36.25;27.15;93314.97;2029820;70;20049;-79
2023/07/10 10:33:54;;;;;;;;;;;;;;;35.45;27.31;93312.56;2029618;70;20414;-78
2023/07/10 10:36:32;;;;;;;;;;;;;;;35.87;26.28;93322.53;2029829;70;20061;-80
2023/07/10 10:39:20;;;;;;;;;;;;;;;36.36;24.52;93321.97;2029870;70;20507;-78
2023/07/10 10:41:57;;;;;;;;;;;;;;;37.04;24.56;93320.13;2029695;70;20057;-79
2023/07/10 10:44:25;;;;;;;;;;;;;;;38.08;23.69;93319.78;2029773;70;20061;-80
2023/07/10 10:47:00;;;;;;;;;;;;;;;41.35;22.00;93328.81;2029856;70;20049;-81
2023/07/10 10:49:34;;;;;;;;;;;;;;;43.26;20.98;93323.00;2029228;70;20053;-79
2023/07/10 10:52:03;;;;;;;;;;;;;;;43.44;19.78;93322.00;2029846;70;20064;-78
2023/07/10 10:54:52;;;;;;;;;;;;;;;42.69;19.39;93314.16;2029278;70;20049;-77
2023/07/10 10:57:32;;;;;;;;;;;;;;;43.50;18.81;93309.81;2029848;70;20049;-79
2023/07/10 11:00:07;;;;;;;;;;;;;;;46.00;17.86;93313.34;2029709;70;20144;-79
2023/07/10 11:02:32;;;;;;;;;;;;;;;44.46;18.49;93303.63;2038727;70;20054;-76
2023/07/10 11:05:21;;;;;;;;;;;;;;;46.17;17.35;93295.88;2048830;70;20047;-77
2023/07/10 11:07:52;;;;;;;;;;;;;;;42.87;19.04;93295.44;2049207;69;20047;-77
2023/07/10 11:10:38;;;;;;;;;;;;;;;47.15;16.85;93306.34;2048160;70;20074;-78
2023/07/10 11:13:04;;;;;;;;;;;;;;;50.05;16.00;93300.06;2048040;70;20535;-79
2023/07/10 11:15:31;;;;;;;;;;;;;;;50.90;14.27;93298.19;2048577;70;20055;-80
2023/07/10 11:17:57;;;;;;;;;;;;;;;51.48;12.93;93299.94;2048060;70;20090;-80
2023/07/10 11:20:24;;;;;;;;;;;;;;;50.00;14.17;93287.72;2048613;70;20093;-79
2023/07/10 11:22:59;;;;;;;;;;;;;;;51.59;13.48;93285.47;2048799;70;20050;-77
2023/07/10 11:25:27;;;;;;;;;;;;;;;51.98;13.03;93285.03;2048819;70;20062;-78
2023/07/10 11:27:53;;;;;;;;;;;;;;;51.12;13.65;93270.84;2048498;70;20142;-76
2023/07/10 11:30:29;;;;;;;;;;;;;;;52.32;12.85;93266.84;2048613;70;20484;-77
2023/07/10 11:33:01;;;;;;;;;;;;;;;52.25;12.19;93256.31;2047537;70;20059;-76
2023/07/10 11:35:28;;;;;;;;;;;;;;;52.32;12.00;93248.13;2047212;70;20059;-75
2023/07/10 11:37:59;;;;;;;;;;;;;;;54.83;11.44;93250.88;2046590;70;20102;-77
2023/07/10 11:40:28;;;;;;;;;;;;;;;54.10;12.67;93237.19;2047355;70;20474;-76
2023/07/10 11:42:54;;;;;;;;;;;;;;;54.92;12.15;93235.69;2048522;70;20047;-79
2023/07/10 11:45:25;;;;;;;;;;;;;;;56.25;11.12;93235.16;2048734;70;20050;-80
2023/07/10 11:47:52;;;;;;;;;;;;;;;55.22;10.47;93220.44;2048783;70;20090;-81
2023/07/10 11:50:25;;;;;;;;;;;;;;;55.05;11.54;93220.72;2048461;70;20063;-79
2023/07/10 11:53:09;;;;;;;;;;;;;;;54.88;11.61;93212.66;2048171;70;20047;-80
2023/07/10 11:55:53;;;;;;;;;;;;;;;54.95;10.50;93212.75;2048844;70;20146;-80
2023/07/10 11:58:22;;;;;;;;;;;;;;;52.61;12.27;93201.13;2048546;70;20058;-80
2023/07/10 12:00:47;;;;;;;;;;;;;;;55.23;10.67;93203.06;2045345;70;20183;-80
2023/07/10 12:03:13;;;;;;;;;;;;;;;50.72;11.51;93182.88;2033014;70;20080;-80
2023/07/10 12:05:38;;;;;;;;;;;;;;;55.34;10.93;93193.63;2032380;70;20061;-80
2023/07/10 12:08:06;;;;;;;;;;;;;;;54.33;10.85;93191.16;2032660;70;20120;-76
2023/07/10 12:10:35;;;;;;;;;;;;;;;55.80;10.96;93191.66;2032662;70;20059;-77
2023/07/10 12:13:03;;;;;;;;;;;;;;;52.69;10.72;93176.31;2029079;70;20152;-78
2023/07/10 12:15:29;;;;;;;;;;;;;;;55.68;10.82;93177.19;2032639;70;20064;-77
2023/07/10 12:17:55;;;;;;;;;;;;;;;51.93;10.96;93158.63;2032390;70;20064;-77
2023/07/10 12:20:28;;;;;;;;;;;;;;;56.12;10.07;93173.97;2032428;70;20076;-76
2023/07/10 12:22:55;;;;;;;;;;;;;;;52.98;12.23;93161.59;2032366;70;20484;-77
2023/07/10 12:25:21;;;;;;;;;;;;;;;51.95;11.58;93142.72;2031877;70;20052;-76
2023/07/10 12:27:46;;;;;;;;;;;;;;;46.20;15.02;93129.81;2032267;70;20092;-76
2023/07/10 12:30:16;;;;;;;;;;;;;;;45.82;15.47;93125.66;2032531;70;20092;-76
2023/07/10 12:32:42;;;;;;;;;;;;;;;44.87;15.62;93120.75;2032364;70;20056;-79
2023/07/10 12:35:23;;;;;;;;;;;;;;;43.62;16.56;93122.41;2032468;70;20060;-78
2023/07/10 12:37:49;;;;;;;;;;;;;;;41.96;17.17;93114.59;2032372;70;20051;-77
2023/07/10 12:40:17;;;;;;;;;;;;;;;42.95;17.72;93098.88;2032457;70;20220;-77
2023/07/10 12:42:43;;;;;;;;;;;;;;;41.84;18.22;93090.06;2032260;70;20090;-77
2023/07/10 12:45:15;;;;;;;;;;;;;;;41.91;19.86;93090.44;2032349;70;20088;-80
2023/07/10 12:47:45;;;;;;;;;;;;;;;42.10;19.66;93096.78;2032374;70;20059;-78
2023/07/10 12:50:10;;;;;;;;;;;;;;;41.48;18.44;93098.53;2032564;70;20056;-80
2023/07/10 12:52:37;;;;;;;;;;;;;;;41.71;18.73;93085.56;2032469;70;20059;-79